sensor_id;sensor_type;location;lat;lon;timestamp;temperature;humidity
47546;DHT22;50104;52.002;4.688;2023-02-01T00:03:23;6.30;86.40
47546;DHT22;50104;52.002;4.688;2023-02-01T00:08:24;6.30;86.40
47546;DHT22;50104;52.002;4.688;2023-02-01T00:13:28;6.40;86.30
47546;DHT22;50104;52.002;4.688;2023-02-01T00:18:30;6.40;86.20
47546;DHT22;50104;52.002;4.688;2023-02-01T00:23:35;6.40;86.00
47546;DHT22;50104;52.002;4.688;2023-02-01T00:28:36;6.50;85.80
47546;DHT22;50104;52.002;4.688;2023-02-01T00:33:37;6.50;85.50
47546;DHT22;50104;52.002;4.688;2023-02-01T00:38:38;6.50;85.40
47546;DHT22;50104;52.002;4.688;2023-02-01T00:43:39;6.50;85.20
47546;DHT22;50104;52.002;4.688;2023-02-01T00:48:43;6.60;85.10
47546;DHT22;50104;52.002;4.688;2023-02-01T00:53:44;6.60;85.00
47546;DHT22;50104;52.002;4.688;2023-02-01T00:58:45;6.60;84.90
47546;DHT22;50104;52.002;4.688;2023-02-01T01:03:54;6.60;84.90
47546;DHT22;50104;52.002;4.688;2023-02-01T01:09:00;6.60;84.90
47546;DHT22;50104;52.002;4.688;2023-02-01T01:14:03;6.60;84.70
47546;DHT22;50104;52.002;4.688;2023-02-01T01:19:04;6.60;84.80
47546;DHT22;50104;52.002;4.688;2023-02-01T01:24:05;6.60;84.80
47546;DHT22;50104;52.002;4.688;2023-02-01T01:29:08;6.60;85.00
47546;DHT22;50104;52.002;4.688;2023-02-01T01:34:09;6.60;85.00
47546;DHT22;50104;52.002;4.688;2023-02-01T01:39:10;6.60;85.00
47546;DHT22;50104;52.002;4.688;2023-02-01T01:49:55;6.60;85.30
47546;DHT22;50104;52.002;4.688;2023-02-01T01:54:57;6.60;85.30
47546;DHT22;50104;52.002;4.688;2023-02-01T02:00:05;6.70;85.60
47546;DHT22;50104;52.002;4.688;2023-02-01T02:05:09;6.70;85.70
47546;DHT22;50104;52.002;4.688;2023-02-01T02:10:11;6.70;85.80
47546;DHT22;50104;52.002;4.688;2023-02-01T02:15:14;6.80;85.70
47546;DHT22;50104;52.002;4.688;2023-02-01T02:42:17;6.90;85.30
47546;DHT22;50104;52.002;4.688;2023-02-01T02:48:30;6.90;85.30
47546;DHT22;50104;52.002;4.688;2023-02-01T02:54:18;7.00;85.40
47546;DHT22;50104;52.002;4.688;2023-02-01T02:59:43;7.00;85.10
47546;DHT22;50104;52.002;4.688;2023-02-01T03:05:04;7.00;85.10
47546;DHT22;50104;52.002;4.688;2023-02-01T03:10:09;7.00;85.00
47546;DHT22;50104;52.002;4.688;2023-02-01T03:15:18;7.00;84.70
47546;DHT22;50104;52.002;4.688;2023-02-01T03:20:24;7.10;84.80
47546;DHT22;50104;52.002;4.688;2023-02-01T03:25:28;7.10;84.50
47546;DHT22;50104;52.002;4.688;2023-02-01T03:30:43;7.10;84.50
47546;DHT22;50104;52.002;4.688;2023-02-01T03:35:47;7.10;84.80
47546;DHT22;50104;52.002;4.688;2023-02-01T03:46:28;7.10;84.70
47546;DHT22;50104;52.002;4.688;2023-02-01T03:51:33;7.10;84.60
47546;DHT22;50104;52.002;4.688;2023-02-01T03:56:38;7.00;84.50
47546;DHT22;50104;52.002;4.688;2023-02-01T04:01:40;7.10;84.80
47546;DHT22;50104;52.002;4.688;2023-02-01T04:06:41;7.10;84.70
47546;DHT22;50104;52.002;4.688;2023-02-01T04:11:42;7.10;84.70
47546;DHT22;50104;52.002;4.688;2023-02-01T04:16:44;7.10;84.60
47546;DHT22;50104;52.002;4.688;2023-02-01T04:21:45;7.10;84.80
47546;DHT22;50104;52.002;4.688;2023-02-01T04:26:46;7.00;84.50
47546;DHT22;50104;52.002;4.688;2023-02-01T04:31:47;7.10;84.80
47546;DHT22;50104;52.002;4.688;2023-02-01T04:36:49;7.10;84.70
47546;DHT22;50104;52.002;4.688;2023-02-01T04:41:51;7.10;84.50
47546;DHT22;50104;52.002;4.688;2023-02-01T04:46:52;7.10;84.50
47546;DHT22;50104;52.002;4.688;2023-02-01T04:51:53;7.10;84.30
47546;DHT22;50104;52.002;4.688;2023-02-01T04:56:54;7.10;84.40
47546;DHT22;50104;52.002;4.688;2023-02-01T05:01:55;7.10;84.40
47546;DHT22;50104;52.002;4.688;2023-02-01T05:06:55;7.00;84.50
47546;DHT22;50104;52.002;4.688;2023-02-01T05:11:56;7.00;84.50
47546;DHT22;50104;52.002;4.688;2023-02-01T05:17:15;7.00;84.50
47546;DHT22;50104;52.002;4.688;2023-02-01T05:22:16;7.00;84.50
47546;DHT22;50104;52.002;4.688;2023-02-01T05:27:17;7.00;84.50
47546;DHT22;50104;52.002;4.688;2023-02-01T05:32:18;7.00;84.50
47546;DHT22;50104;52.002;4.688;2023-02-01T05:37:19;7.00;84.60
47546;DHT22;50104;52.002;4.688;2023-02-01T05:42:20;6.90;84.50
47546;DHT22;50104;52.002;4.688;2023-02-01T05:47:20;6.90;84.70
47546;DHT22;50104;52.002;4.688;2023-02-01T05:52:21;6.90;84.90
47546;DHT22;50104;52.002;4.688;2023-02-01T05:57:22;6.90;85.00
47546;DHT22;50104;52.002;4.688;2023-02-01T06:02:23;6.90;85.00
47546;DHT22;50104;52.002;4.688;2023-02-01T06:07:24;6.90;85.10
47546;DHT22;50104;52.002;4.688;2023-02-01T06:12:25;6.90;85.00
47546;DHT22;50104;52.002;4.688;2023-02-01T06:17:28;6.90;85.00
47546;DHT22;50104;52.002;4.688;2023-02-01T06:22:29;6.90;85.10
47546;DHT22;50104;52.002;4.688;2023-02-01T06:27:30;6.90;85.30
47546;DHT22;50104;52.002;4.688;2023-02-01T06:32:31;6.90;85.30
47546;DHT22;50104;52.002;4.688;2023-02-01T06:37:32;6.90;85.40
47546;DHT22;50104;52.002;4.688;2023-02-01T06:42:33;6.90;85.40
47546;DHT22;50104;52.002;4.688;2023-02-01T06:47:33;7.00;85.40
47546;DHT22;50104;52.002;4.688;2023-02-01T06:52:35;7.00;85.40
47546;DHT22;50104;52.002;4.688;2023-02-01T06:57:36;7.00;85.00
47546;DHT22;50104;52.002;4.688;2023-02-01T07:02:36;7.00;85.00
47546;DHT22;50104;52.002;4.688;2023-02-01T07:07:38;7.00;84.90
47546;DHT22;50104;52.002;4.688;2023-02-01T07:12:39;7.00;84.90
47546;DHT22;50104;52.002;4.688;2023-02-01T07:17:40;7.00;84.80
47546;DHT22;50104;52.002;4.688;2023-02-01T07:22:41;7.00;84.90
47546;DHT22;50104;52.002;4.688;2023-02-01T07:27:42;7.00;84.90
47546;DHT22;50104;52.002;4.688;2023-02-01T07:32:42;7.00;84.90
47546;DHT22;50104;52.002;4.688;2023-02-01T07:37:43;7.00;84.90
47546;DHT22;50104;52.002;4.688;2023-02-01T07:42:44;7.00;85.00
47546;DHT22;50104;52.002;4.688;2023-02-01T07:47:46;7.00;85.10
47546;DHT22;50104;52.002;4.688;2023-02-01T07:52:47;7.00;85.00
47546;DHT22;50104;52.002;4.688;2023-02-01T07:57:48;7.00;85.10
47546;DHT22;50104;52.002;4.688;2023-02-01T08:02:49;7.00;85.10
47546;DHT22;50104;52.002;4.688;2023-02-01T08:07:50;7.00;85.30
47546;DHT22;50104;52.002;4.688;2023-02-01T08:12:51;7.00;85.40
47546;DHT22;50104;52.002;4.688;2023-02-01T08:17:52;7.00;85.40
47546;DHT22;50104;52.002;4.688;2023-02-01T08:22:55;7.00;85.50
47546;DHT22;50104;52.002;4.688;2023-02-01T08:27:55;7.00;85.60
47546;DHT22;50104;52.002;4.688;2023-02-01T08:32:57;7.00;85.60
47546;DHT22;50104;52.002;4.688;2023-02-01T08:37:58;7.10;85.70
47546;DHT22;50104;52.002;4.688;2023-02-01T08:42:59;7.10;85.80
47546;DHT22;50104;52.002;4.688;2023-02-01T08:48:01;7.10;85.90
47546;DHT22;50104;52.002;4.688;2023-02-01T08:53:01;7.20;85.60
47546;DHT22;50104;52.002;4.688;2023-02-01T08:58:02;7.20;85.60
47546;DHT22;50104;52.002;4.688;2023-02-01T09:03:03;7.30;85.70
47546;DHT22;50104;52.002;4.688;2023-02-01T09:08:04;7.30;85.70
47546;DHT22;50104;52.002;4.688;2023-02-01T09:13:05;7.40;85.70
47546;DHT22;50104;52.002;4.688;2023-02-01T09:18:06;7.40;85.80
47546;DHT22;50104;52.002;4.688;2023-02-01T09:23:07;7.50;85.80
47546;DHT22;50104;52.002;4.688;2023-02-01T09:28:07;7.60;85.80
47546;DHT22;50104;52.002;4.688;2023-02-01T09:33:09;7.70;85.40
47546;DHT22;50104;52.002;4.688;2023-02-01T09:38:10;7.70;85.10
47546;DHT22;50104;52.002;4.688;2023-02-01T09:48:36;7.80;84.70
47546;DHT22;50104;52.002;4.688;2023-02-01T09:53:45;7.90;84.70
47546;DHT22;50104;52.002;4.688;2023-02-01T10:04:07;8.00;84.30
47546;DHT22;50104;52.002;4.688;2023-02-01T10:09:49;8.00;84.00
47546;DHT22;50104;52.002;4.688;2023-02-01T10:14:53;8.00;84.10
47546;DHT22;50104;52.002;4.688;2023-02-01T10:30:24;8.00;83.70
47546;DHT22;50104;52.002;4.688;2023-02-01T10:35:31;8.00;83.70
47546;DHT22;50104;52.002;4.688;2023-02-01T10:41:23;8.00;83.70
47546;DHT22;50104;52.002;4.688;2023-02-01T10:46:33;7.90;84.10
47546;DHT22;50104;52.002;4.688;2023-02-01T10:51:45;8.00;84.10
47546;DHT22;50104;52.002;4.688;2023-02-01T10:56:52;8.00;84.10
47546;DHT22;50104;52.002;4.688;2023-02-01T11:02:02;8.10;84.20
47546;DHT22;50104;52.002;4.688;2023-02-01T11:07:25;8.10;83.80
47546;DHT22;50104;52.002;4.688;2023-02-01T11:12:30;8.20;83.80
47546;DHT22;50104;52.002;4.688;2023-02-01T11:17:35;8.20;83.50
47546;DHT22;50104;52.002;4.688;2023-02-01T11:22:55;8.20;83.40
47546;DHT22;50104;52.002;4.688;2023-02-01T11:27:56;8.20;83.30
47546;DHT22;50104;52.002;4.688;2023-02-01T11:32:57;8.30;83.30
47546;DHT22;50104;52.002;4.688;2023-02-01T11:38:00;8.30;83.40
47546;DHT22;50104;52.002;4.688;2023-02-01T11:43:08;8.30;83.50
47546;DHT22;50104;52.002;4.688;2023-02-01T11:48:16;8.40;83.50
47546;DHT22;50104;52.002;4.688;2023-02-01T12:42:37;8.60;83.20
47546;DHT22;50104;52.002;4.688;2023-02-01T12:47:53;8.70;83.30
47546;DHT22;50104;52.002;4.688;2023-02-01T12:53:09;8.70;83.30
47546;DHT22;50104;52.002;4.688;2023-02-01T12:58:38;8.80;82.80
47546;DHT22;50104;52.002;4.688;2023-02-01T13:09:26;8.80;83.20
47546;DHT22;50104;52.002;4.688;2023-02-01T13:15:01;8.90;83.00
47546;DHT22;50104;52.002;4.688;2023-02-01T13:20:31;8.90;82.80
47546;DHT22;50104;52.002;4.688;2023-02-01T13:36:52;9.00;82.40
47546;DHT22;50104;52.002;4.688;2023-02-01T13:42:01;9.00;82.20
47546;DHT22;50104;52.002;4.688;2023-02-01T13:52:38;9.00;82.30
47546;DHT22;50104;52.002;4.688;2023-02-01T13:57:42;9.00;82.20
47546;DHT22;50104;52.002;4.688;2023-02-01T14:13:31;9.00;82.80
47546;DHT22;50104;52.002;4.688;2023-02-01T14:23:41;9.00;82.70
47546;DHT22;50104;52.002;4.688;2023-02-01T14:28:56;9.00;83.00
47546;DHT22;50104;52.002;4.688;2023-02-01T14:34:01;9.00;83.00
47546;DHT22;50104;52.002;4.688;2023-02-01T14:44:36;9.00;83.20
47546;DHT22;50104;52.002;4.688;2023-02-01T14:55:05;9.10;83.00
47546;DHT22;50104;52.002;4.688;2023-02-01T15:00:27;9.10;83.00
47546;DHT22;50104;52.002;4.688;2023-02-01T15:05:33;9.10;83.20
47546;DHT22;50104;52.002;4.688;2023-02-01T15:10:43;9.10;83.20
47546;DHT22;50104;52.002;4.688;2023-02-01T15:16:00;9.10;83.20
47546;DHT22;50104;52.002;4.688;2023-02-01T15:21:21;9.10;83.30
47546;DHT22;50104;52.002;4.688;2023-02-01T15:26:31;9.10;83.40
47546;DHT22;50104;52.002;4.688;2023-02-01T15:31:38;9.10;83.30
47546;DHT22;50104;52.002;4.688;2023-02-01T15:36:42;9.10;83.40
47546;DHT22;50104;52.002;4.688;2023-02-01T15:42:10;9.10;83.20
47546;DHT22;50104;52.002;4.688;2023-02-01T15:47:17;9.10;83.10
47546;DHT22;50104;52.002;4.688;2023-02-01T15:52:27;9.10;83.00
47546;DHT22;50104;52.002;4.688;2023-02-01T15:57:36;9.10;83.00
47546;DHT22;50104;52.002;4.688;2023-02-01T16:08:00;9.00;83.20
47546;DHT22;50104;52.002;4.688;2023-02-01T16:13:04;9.00;83.00
47546;DHT22;50104;52.002;4.688;2023-02-01T16:18:06;9.00;83.20
47546;DHT22;50104;52.002;4.688;2023-02-01T16:23:09;9.00;83.10
47546;DHT22;50104;52.002;4.688;2023-02-01T16:28:11;9.00;83.10
47546;DHT22;50104;52.002;4.688;2023-02-01T16:33:15;9.00;83.20
47546;DHT22;50104;52.002;4.688;2023-02-01T16:38:20;9.00;83.30
47546;DHT22;50104;52.002;4.688;2023-02-01T16:43:24;9.00;83.30
47546;DHT22;50104;52.002;4.688;2023-02-01T16:53:32;9.00;83.30
47546;DHT22;50104;52.002;4.688;2023-02-01T16:58:33;9.10;83.40
47546;DHT22;50104;52.002;4.688;2023-02-01T17:03:35;9.10;83.40
47546;DHT22;50104;52.002;4.688;2023-02-01T17:08:40;9.10;83.60
47546;DHT22;50104;52.002;4.688;2023-02-01T17:13:42;9.10;83.60
47546;DHT22;50104;52.002;4.688;2023-02-01T17:19:06;9.10;83.60
47546;DHT22;50104;52.002;4.688;2023-02-01T17:24:14;9.10;83.60
47546;DHT22;50104;52.002;4.688;2023-02-01T17:29:15;9.20;83.60
47546;DHT22;50104;52.002;4.688;2023-02-01T17:34:16;9.10;83.80
47546;DHT22;50104;52.002;4.688;2023-02-01T17:39:18;9.10;83.70
47546;DHT22;50104;52.002;4.688;2023-02-01T17:44:38;9.20;83.50
47546;DHT22;50104;52.002;4.688;2023-02-01T17:49:39;9.20;83.50
47546;DHT22;50104;52.002;4.688;2023-02-01T17:54:39;9.10;83.60
47546;DHT22;50104;52.002;4.688;2023-02-01T17:59:40;9.10;83.70
47546;DHT22;50104;52.002;4.688;2023-02-01T18:04:41;9.10;83.70
47546;DHT22;50104;52.002;4.688;2023-02-01T18:09:42;9.10;83.80
47546;DHT22;50104;52.002;4.688;2023-02-01T18:14:42;9.10;83.80
47546;DHT22;50104;52.002;4.688;2023-02-01T18:19:43;9.10;83.90
47546;DHT22;50104;52.002;4.688;2023-02-01T18:24:45;9.10;83.90
47546;DHT22;50104;52.002;4.688;2023-02-01T18:29:46;9.10;84.00
47546;DHT22;50104;52.002;4.688;2023-02-01T18:34:47;9.10;84.00
47546;DHT22;50104;52.002;4.688;2023-02-01T18:39:48;9.10;84.00
47546;DHT22;50104;52.002;4.688;2023-02-01T18:44:49;9.10;84.10
47546;DHT22;50104;52.002;4.688;2023-02-01T18:49:50;9.10;84.10
47546;DHT22;50104;52.002;4.688;2023-02-01T18:54:51;9.10;84.10
47546;DHT22;50104;52.002;4.688;2023-02-01T18:59:52;9.10;84.20
47546;DHT22;50104;52.002;4.688;2023-02-01T19:04:52;9.10;84.30
47546;DHT22;50104;52.002;4.688;2023-02-01T19:09:53;9.10;84.30
47546;DHT22;50104;52.002;4.688;2023-02-01T19:14:54;9.10;84.40
47546;DHT22;50104;52.002;4.688;2023-02-01T19:19:55;9.10;84.40
47546;DHT22;50104;52.002;4.688;2023-02-01T19:24:58;9.10;84.50
47546;DHT22;50104;52.002;4.688;2023-02-01T19:30:00;9.10;84.40
47546;DHT22;50104;52.002;4.688;2023-02-01T19:35:01;9.10;84.30
47546;DHT22;50104;52.002;4.688;2023-02-01T19:40:02;9.10;84.30
47546;DHT22;50104;52.002;4.688;2023-02-01T19:45:03;9.10;84.30
47546;DHT22;50104;52.002;4.688;2023-02-01T19:50:05;9.10;84.40
47546;DHT22;50104;52.002;4.688;2023-02-01T19:55:07;9.10;84.40
47546;DHT22;50104;52.002;4.688;2023-02-01T20:00:08;9.10;84.40
47546;DHT22;50104;52.002;4.688;2023-02-01T20:05:10;9.10;84.40
47546;DHT22;50104;52.002;4.688;2023-02-01T20:10:12;9.10;84.40
47546;DHT22;50104;52.002;4.688;2023-02-01T20:15:13;9.10;84.60
47546;DHT22;50104;52.002;4.688;2023-02-01T20:20:14;9.10;84.40
47546;DHT22;50104;52.002;4.688;2023-02-01T20:25:15;9.10;85.20
47546;DHT22;50104;52.002;4.688;2023-02-01T20:30:17;9.10;84.70
47546;DHT22;50104;52.002;4.688;2023-02-01T20:35:22;9.10;84.60
47546;DHT22;50104;52.002;4.688;2023-02-01T20:40:23;9.20;84.60
47546;DHT22;50104;52.002;4.688;2023-02-01T20:45:24;9.20;84.60
47546;DHT22;50104;52.002;4.688;2023-02-01T20:50:26;9.10;84.70
47546;DHT22;50104;52.002;4.688;2023-02-01T20:55:27;9.10;84.80
47546;DHT22;50104;52.002;4.688;2023-02-01T21:00:28;9.10;84.80
47546;DHT22;50104;52.002;4.688;2023-02-01T21:05:30;9.20;84.70
47546;DHT22;50104;52.002;4.688;2023-02-01T21:10:39;9.20;84.70
47546;DHT22;50104;52.002;4.688;2023-02-01T21:15:42;9.20;84.60
47546;DHT22;50104;52.002;4.688;2023-02-01T21:20:43;9.20;84.60
47546;DHT22;50104;52.002;4.688;2023-02-01T21:25:48;9.30;84.60
47546;DHT22;50104;52.002;4.688;2023-02-01T21:30:49;9.30;84.60
47546;DHT22;50104;52.002;4.688;2023-02-01T21:35:50;9.30;84.60
47546;DHT22;50104;52.002;4.688;2023-02-01T21:40:51;9.30;84.60
47546;DHT22;50104;52.002;4.688;2023-02-01T21:46:12;9.30;84.60
47546;DHT22;50104;52.002;4.688;2023-02-01T21:51:13;9.30;84.60
47546;DHT22;50104;52.002;4.688;2023-02-01T21:56:16;9.30;84.60
47546;DHT22;50104;52.002;4.688;2023-02-01T22:01:17;9.30;84.70
47546;DHT22;50104;52.002;4.688;2023-02-01T22:06:28;9.30;84.70
47546;DHT22;50104;52.002;4.688;2023-02-01T22:11:31;9.40;84.50
47546;DHT22;50104;52.002;4.688;2023-02-01T22:16:32;9.40;84.60
47546;DHT22;50104;52.002;4.688;2023-02-01T22:21:33;9.40;84.60
47546;DHT22;50104;52.002;4.688;2023-02-01T22:26:34;9.40;84.80
47546;DHT22;50104;52.002;4.688;2023-02-01T22:31:35;9.40;84.90
47546;DHT22;50104;52.002;4.688;2023-02-01T22:36:36;9.30;84.90
47546;DHT22;50104;52.002;4.688;2023-02-01T22:41:37;9.30;84.90
47546;DHT22;50104;52.002;4.688;2023-02-01T22:46:38;9.30;84.90
47546;DHT22;50104;52.002;4.688;2023-02-01T22:51:39;9.30;84.90
47546;DHT22;50104;52.002;4.688;2023-02-01T22:56:40;9.40;84.80
47546;DHT22;50104;52.002;4.688;2023-02-01T23:01:41;9.40;84.80
47546;DHT22;50104;52.002;4.688;2023-02-01T23:06:43;9.40;84.80
47546;DHT22;50104;52.002;4.688;2023-02-01T23:11:44;9.40;84.80
47546;DHT22;50104;52.002;4.688;2023-02-01T23:16:46;9.40;84.80
47546;DHT22;50104;52.002;4.688;2023-02-01T23:21:48;9.40;84.70
47546;DHT22;50104;52.002;4.688;2023-02-01T23:26:49;9.40;84.60
47546;DHT22;50104;52.002;4.688;2023-02-01T23:31:50;9.40;84.60
47546;DHT22;50104;52.002;4.688;2023-02-01T23:36:51;9.30;84.80
47546;DHT22;50104;52.002;4.688;2023-02-01T23:41:51;9.40;84.80
47546;DHT22;50104;52.002;4.688;2023-02-01T23:46:52;9.30;84.90
47546;DHT22;50104;52.002;4.688;2023-02-01T23:51:55;9.30;84.90
47546;DHT22;50104;52.002;4.688;2023-02-01T23:56:56;9.30;84.90
